Hot Springs, Montana
Current Conditions -  °F | °C
As of 2:53 PM on Friday 24 Oct 2014 (Local Time) from KMLP Reporting Station
Broken Clouds Broken Clouds  
Wind Chill: 38°   Ceiling: 1400
Heat Index: 38°   Visibility: 10mi
Dew Point: 34°   Wind: 0mph
Humidity: 86%   Direction: NA
Pressure: 30.09"   Gusts: NA
Location:  47.61°N, 114.67°W
Report Text: KMLP 242053Z AUTO 00000KT 10SM BKN014 03/01 A3009 RMK AO2 SLP153 T00330011 58002
Loading
Personal Weather Stations






























Interactive Weather Map New forecast layout! Learn more

10-Day Weather Forecast

Advertisements
Track Severe Weather on mobile